Airfield :
LOGIN :

Register | Disclaimer

   EN    FR    IT 

 










Legend :    VFR   Marginal VFR   IFR   Intensive IFR   Very Intensive IFR
Visi :
Ceiling :
>= 8 km
>= 3000ft
5 to 8 km
1000 to 3000 ft
1500m to 5 km
500 to 1000 ft
800 to 1500m
200 to 500 ft
< 800m
< 200 ft
Symbols :   Thunderstorms  Fog  Heavy snow  Heavy precipitations  Wind > 20 kt
SIGMETs :     Misc.  Thunderstorms  Icing  Turbulence  Mountain Waves  Volcanic Ashes






- Airport Elevation : 194 ft


EBCV - Chièvres

CURRENT METAR :
  • 011255Z AUTO 01004KT 9999 -RA SCT024/// OVC061/// 16/15 Q1011 WHT

EXPIRED METARs :
  • 011240Z AUTO 28012KT 1400 +RA FEW024/// BKN038/// 16/15 Q1011 AMB
  • 011155Z AUTO 31004KT 9999 BKN020/// BKN082/// 18/15 Q1011 WHT
  • 011143Z AUTO 34005KT 9999 FEW045/// BKN064/// 18/16 Q1010 BLU
  • 011125Z AUTO 27005KT 9999 BKN024/// 17/15 Q1010 WHT
  • 011122Z AUTO 26007KT 9999 -RA BKN023/// 16/15 Q1011 WHT
  • 011105Z AUTO 31010KT 2700 +RA BKN022/// OVC078/// 16/14 Q1011 YLO
  • 011055Z AUTO 31007KT 9000 -RA FEW020/// BKN022/// BKN079/// 17/14 Q1010 WHT
  • 011025Z AUTO 25008KT 9999 BKN020/// 18/14 Q1010 WHT

TAF TAF EBCV
Valid from the 01 at 13:00 until the 01 at 22:00 UTC


011141Z 0113/0122 27010KT 9999 BKN025
TEMPO 0113/0119 27010G20KT 3500 SHRA SCT013 BKN020TCU
PROB40
TEMPO 0113/1319 27015G25KT 2000 TSRA SCT009 BKN015CB BY EBWM



MET'MAP, your aeronautical weather chart ! - Copyright ORBIFLY December 2007 - Disclaimer

ORBIFLY MET'MAP TEAM :

Programming & Development : Alexandra Zaïnal
Concept & original design : Baudouin d'Aumeries
Assistance for programming : Marc-Olivier Méhu
Technical & hardware support : Manuel Goepfert

Contact : metmap@orbifly.com




SOURCES & CREDITS :

   NOAA